createdAt,value
2023-02-14T00:01:30.673Z,2.30
2023-02-14T00:04:00.911Z,2.40
2023-02-14T00:06:29.762Z,2.50
2023-02-14T00:08:57.958Z,2.50
2023-02-14T00:11:25.877Z,2.40
2023-02-14T00:14:12.575Z,2.40
2023-02-14T00:16:40.494Z,2.40
2023-02-14T00:19:08.503Z,2.20
2023-02-14T00:21:38.628Z,2.30
2023-02-14T00:24:08.152Z,2.20
2023-02-14T00:26:38.793Z,2.30
2023-02-14T00:29:09.481Z,2.10
2023-02-14T00:31:38.987Z,2.30
2023-02-14T00:34:08.041Z,2.40
2023-02-14T00:36:37.232Z,2.30
2023-02-14T00:39:06.182Z,2.20
2023-02-14T00:41:34.697Z,2.20
2023-02-14T00:44:03.539Z,2.20
2023-02-14T00:46:32.778Z,2.30
2023-02-14T00:49:01.004Z,2.20
2023-02-14T00:51:29.399Z,2.00
2023-02-14T00:53:57.725Z,2.20
2023-02-14T00:56:25.846Z,2.30
2023-02-14T00:58:53.999Z,2.20
2023-02-14T01:01:22.657Z,2.30
2023-02-14T01:03:52.050Z,2.10
2023-02-14T01:06:20.523Z,2.10
2023-02-14T01:08:48.933Z,2.10
2023-02-14T01:11:19.180Z,2.10
2023-02-14T01:13:47.750Z,1.90
2023-02-14T01:16:17.813Z,1.90
2023-02-14T01:18:46.035Z,1.90
2023-02-14T01:21:18.509Z,1.80
2023-02-14T01:23:47.716Z,2.00
2023-02-14T01:26:16.796Z,2.10
2023-02-14T01:28:45.856Z,2.00
2023-02-14T10:02:37.839Z,11.00
2023-02-14T10:05:14.006Z,13.10
2023-02-14T10:07:56.605Z,13.00
2023-02-14T10:10:28.759Z,13.30
2023-02-14T10:13:03.085Z,13.60
2023-02-14T10:15:35.385Z,13.00
2023-02-14T10:18:12.249Z,12.80
2023-02-14T10:20:44.581Z,12.90
2023-02-14T10:23:27.186Z,13.10
2023-02-14T10:25:59.020Z,13.00
2023-02-14T10:28:33.813Z,12.90
2023-02-14T10:31:24.078Z,13.40
2023-02-14T10:33:57.883Z,13.60
2023-02-14T10:36:43.822Z,14.20
2023-02-14T10:39:27.223Z,14.60
2023-02-14T10:41:59.482Z,15.60
2023-02-14T10:44:40.253Z,16.70
2023-02-14T10:47:23.351Z,17.60
2023-02-14T10:49:57.813Z,18.80
2023-02-14T10:52:31.064Z,20.10
2023-02-14T10:55:01.582Z,20.50
2023-02-14T10:57:33.553Z,21.00
2023-02-14T11:00:05.201Z,20.80
2023-02-14T11:02:35.823Z,20.40
2023-02-14T11:05:06.196Z,20.50
2023-02-14T11:07:34.489Z,20.30
2023-02-14T11:10:03.494Z,20.60
2023-02-14T11:12:37.400Z,20.90
2023-02-14T11:15:20.524Z,21.00
2023-02-14T11:17:48.923Z,21.00
2023-02-14T11:20:27.884Z,20.80
2023-02-14T11:22:56.035Z,20.50
2023-02-14T11:25:27.173Z,20.60
2023-02-14T11:28:00.186Z,19.70
2023-02-14T11:30:32.607Z,19.80
2023-02-14T11:33:01.131Z,19.80
2023-02-14T11:35:34.691Z,19.80
2023-02-14T11:38:04.699Z,18.30
2023-02-14T11:40:36.151Z,16.60
2023-02-14T11:43:20.390Z,14.80
2023-02-14T11:45:49.634Z,13.20
2023-02-14T11:48:31.532Z,11.80
2023-02-14T11:51:10.170Z,10.80
2023-02-14T11:53:46.298Z,9.70
2023-02-14T11:56:15.583Z,9.20
2023-02-14T11:58:51.539Z,8.80
2023-02-14T12:01:26.836Z,8.40
2023-02-14T12:03:58.145Z,8.20
2023-02-14T12:06:30.618Z,8.10
2023-02-14T12:09:13.407Z,8.00
2023-02-14T12:11:41.346Z,7.60
2023-02-14T12:14:23.544Z,7.30
2023-02-14T12:16:59.172Z,7.10
2023-02-14T12:19:36.099Z,7.10
2023-02-14T12:22:07.325Z,7.10
2023-02-14T12:24:39.042Z,7.30
2023-02-14T12:27:18.518Z,7.30
2023-02-14T12:29:50.097Z,7.30
2023-02-14T12:32:22.905Z,7.10
2023-02-14T12:34:51.408Z,7.00
2023-02-14T12:37:33.773Z,7.00
2023-02-14T12:40:13.345Z,6.90
2023-02-14T12:42:56.808Z,6.80
2023-02-14T12:45:31.725Z,6.80
2023-02-14T12:48:15.121Z,6.80
2023-02-14T12:50:50.602Z,6.80
2023-02-14T12:53:43.627Z,7.00
2023-02-14T12:56:18.741Z,7.00
2023-02-14T12:58:54.602Z,6.90
2023-02-14T13:01:58.419Z,6.90
2023-02-14T13:04:58.733Z,7.00
2023-02-14T13:07:41.727Z,6.90
2023-02-14T13:10:24.068Z,6.80
2023-02-14T13:13:01.387Z,6.90
2023-02-14T13:15:36.605Z,6.90
2023-02-14T13:18:12.405Z,6.90
2023-02-14T13:20:49.763Z,6.90
2023-02-14T13:23:21.565Z,6.90
2023-02-14T13:25:56.602Z,6.90
2023-02-14T13:28:25.510Z,7.00
2023-02-14T13:30:54.517Z,7.00
2023-02-14T13:33:28.306Z,6.90
2023-02-14T13:36:01.199Z,6.70
2023-02-14T13:38:31.680Z,6.70
2023-02-14T13:41:03.362Z,6.60
2023-02-14T13:43:52.967Z,6.70
2023-02-14T13:46:23.513Z,6.60
2023-02-14T13:49:02.584Z,6.60
2023-02-14T13:51:46.372Z,6.50
2023-02-14T13:54:31.711Z,6.50
2023-02-14T13:57:02.769Z,6.60
2023-02-14T13:59:33.092Z,6.50
2023-02-14T14:02:32.922Z,6.50
2023-02-14T14:05:01.302Z,6.40
2023-02-14T14:07:31.310Z,6.40
2023-02-14T14:10:02.951Z,6.50
2023-02-14T14:12:53.230Z,6.50
2023-02-14T14:15:21.763Z,6.40
2023-02-14T14:18:05.992Z,6.30
2023-02-14T14:20:48.387Z,6.20
2023-02-14T14:23:33.398Z,6.20
2023-02-14T14:26:02.712Z,6.20
2023-02-14T14:28:34.265Z,6.20
2023-02-14T14:31:02.457Z,6.30
2023-02-14T14:33:32.832Z,6.30
2023-02-14T14:36:04.331Z,6.20
2023-02-14T14:38:35.060Z,6.10
2023-02-14T14:41:03.856Z,6.10
2023-02-14T14:43:36.127Z,6.10
2023-02-14T14:46:05.577Z,6.00
2023-02-14T14:48:36.939Z,5.90
2023-02-14T14:51:07.020Z,5.90
2023-02-14T14:53:44.537Z,5.70
2023-02-14T14:56:14.705Z,5.80
2023-02-14T14:58:44.159Z,5.80
2023-02-14T15:01:21.315Z,5.80
2023-02-14T15:03:50.190Z,5.70
2023-02-14T15:06:21.204Z,5.70
2023-02-14T15:08:51.605Z,5.60
2023-02-14T15:11:36.003Z,5.70
2023-02-14T15:14:09.130Z,5.70
2023-02-14T15:16:43.296Z,5.70
2023-02-14T15:19:17.609Z,5.60
2023-02-14T15:21:47.152Z,5.50
2023-02-14T15:24:17.772Z,5.50
2023-02-14T15:26:47.777Z,5.50
2023-02-14T15:29:23.987Z,5.50
2023-02-14T15:31:52.870Z,5.40
2023-02-14T15:34:23.604Z,5.30
2023-02-14T15:36:59.386Z,5.40
2023-02-14T15:39:34.853Z,5.40
2023-02-14T15:42:02.984Z,5.30
2023-02-14T15:44:32.770Z,5.30
2023-02-14T15:47:03.929Z,5.10
2023-02-14T15:49:35.681Z,5.00
2023-02-14T15:52:07.660Z,5.20
2023-02-14T15:54:39.426Z,5.10
2023-02-14T15:57:17.087Z,4.90
2023-02-14T15:59:46.719Z,5.10
2023-02-14T16:02:28.521Z,5.10
2023-02-14T16:05:03.280Z,5.00
2023-02-14T16:07:31.808Z,4.90
2023-02-14T16:10:23.095Z,4.70
2023-02-14T16:12:57.628Z,4.80
2023-02-14T16:15:29.505Z,4.70
2023-02-14T16:17:57.828Z,4.80
2023-02-14T16:20:38.585Z,4.70
2023-02-14T16:23:25.011Z,4.70
2023-02-14T16:25:53.660Z,4.70
2023-02-14T16:28:22.879Z,4.60
2023-02-14T16:30:58.496Z,4.50
2023-02-14T16:33:28.508Z,4.50
2023-02-14T16:35:58.797Z,4.40
2023-02-14T16:38:27.079Z,4.20
2023-02-14T16:40:55.500Z,4.00
2023-02-14T16:43:23.555Z,4.00
2023-02-14T16:45:51.671Z,3.80
2023-02-14T16:48:21.234Z,3.70
2023-02-14T16:50:49.237Z,3.60
2023-02-14T16:53:26.970Z,3.60
2023-02-14T16:55:57.433Z,3.60
2023-02-14T16:58:30.097Z,3.60
2023-02-14T17:00:59.668Z,3.50
2023-02-14T17:03:29.170Z,3.40
2023-02-14T17:05:58.134Z,3.30
2023-02-14T17:08:27.057Z,3.30
2023-02-14T17:10:56.637Z,3.10
2023-02-14T17:13:27.790Z,3.00
2023-02-14T17:15:57.082Z,2.90
2023-02-14T17:18:26.901Z,3.00
2023-02-14T17:20:56.522Z,3.00
2023-02-14T17:23:24.653Z,3.10
2023-02-14T17:25:52.585Z,3.30
2023-02-14T17:28:20.642Z,3.20
2023-02-14T17:30:48.791Z,3.30
2023-02-14T17:33:16.769Z,3.20
2023-02-14T17:35:44.932Z,3.30
2023-02-14T17:38:14.623Z,3.30
2023-02-14T17:40:42.825Z,3.30
2023-02-14T17:43:10.875Z,3.20
2023-02-14T17:45:38.757Z,3.10
2023-02-14T17:48:07.159Z,3.10
2023-02-14T17:50:35.055Z,3.10
2023-02-14T17:53:03.113Z,2.70
2023-02-14T17:55:32.815Z,2.70
2023-02-14T17:58:00.747Z,2.70
2023-02-14T18:00:29.102Z,2.50
2023-02-14T18:02:57.507Z,2.40
2023-02-14T18:05:25.745Z,2.60
2023-02-14T18:07:53.913Z,2.80
2023-02-14T18:10:21.986Z,2.90
2023-02-14T18:12:51.436Z,2.80
2023-02-14T18:15:19.570Z,2.70
2023-02-14T18:17:51.196Z,2.80
2023-02-14T18:20:19.628Z,2.90
2023-02-14T18:22:47.555Z,2.90
2023-02-14T18:25:15.746Z,3.00
2023-02-14T18:27:44.330Z,2.80
2023-02-14T18:30:14.809Z,3.00
2023-02-14T18:32:42.755Z,2.90
2023-02-14T18:35:10.678Z,2.90
2023-02-14T18:37:38.750Z,2.90
2023-02-14T18:40:08.400Z,3.00
2023-02-14T18:42:37.954Z,3.10
2023-02-14T18:45:06.468Z,3.10
2023-02-14T18:47:35.859Z,3.30
2023-02-14T18:50:03.975Z,3.20
2023-02-14T18:52:31.961Z,3.20
2023-02-14T18:54:59.905Z,3.10
2023-02-14T18:57:27.993Z,3.20
2023-02-14T18:59:55.978Z,3.20
2023-02-14T19:02:24.278Z,3.00
2023-02-14T19:04:53.964Z,3.00
2023-02-14T19:07:21.954Z,3.10
2023-02-14T19:09:50.295Z,2.90
2023-02-14T19:12:18.216Z,2.90
2023-02-14T19:14:46.498Z,2.90
2023-02-14T19:17:14.639Z,2.90
2023-02-14T19:19:42.685Z,2.60
2023-02-14T19:22:12.695Z,2.70
2023-02-14T19:24:41.039Z,2.80
2023-02-14T19:27:09.089Z,2.80
2023-02-14T19:29:38.162Z,2.90
2023-02-14T19:32:06.644Z,2.50
2023-02-14T19:34:35.034Z,2.50
2023-02-14T19:37:03.142Z,2.50
2023-02-14T19:39:33.349Z,2.40
2023-02-14T19:42:01.962Z,2.30
2023-02-14T19:44:31.186Z,2.50
2023-02-14T19:47:04.194Z,2.20
2023-02-14T19:49:35.934Z,2.10
2023-02-14T19:52:06.225Z,2.00
2023-02-14T19:54:40.837Z,1.90
2023-02-14T19:57:09.120Z,2.10
2023-02-14T19:59:37.195Z,2.20
2023-02-14T20:02:05.402Z,2.10
2023-02-14T20:04:33.290Z,2.20
2023-02-14T20:07:01.642Z,2.30
2023-02-14T20:09:29.660Z,2.20
2023-02-14T20:12:01.874Z,2.20
2023-02-14T20:14:40.871Z,2.10
2023-02-14T20:17:15.069Z,2.40
2023-02-14T20:19:43.182Z,2.40
2023-02-14T20:22:11.142Z,2.40
2023-02-14T20:24:39.170Z,2.20
2023-02-14T20:27:08.746Z,2.30
2023-02-14T20:29:38.858Z,2.20
2023-02-14T20:32:07.165Z,2.30
2023-02-14T20:34:35.123Z,2.30
2023-02-14T20:37:03.152Z,2.20
2023-02-14T20:39:33.527Z,2.20
2023-02-14T20:42:01.922Z,2.00
2023-02-14T20:44:32.352Z,1.90
2023-02-14T20:47:00.562Z,1.80
2023-02-14T20:49:30.810Z,1.80
2023-02-14T20:51:59.262Z,1.70
2023-02-14T20:54:29.202Z,1.70
2023-02-14T20:56:58.428Z,1.90
2023-02-14T20:59:28.469Z,1.70
2023-02-14T21:01:59.734Z,1.70
2023-02-14T21:04:28.266Z,1.50
2023-02-14T21:06:57.893Z,1.40
2023-02-14T21:09:26.170Z,1.10
2023-02-14T21:11:54.912Z,1.10
2023-02-14T21:14:22.954Z,1.40
2023-02-14T21:16:51.023Z,1.30
2023-02-14T21:19:20.664Z,1.30
2023-02-14T21:21:48.576Z,1.40
2023-02-14T21:24:17.655Z,1.50
2023-02-14T21:26:46.335Z,1.40
2023-02-14T21:29:14.300Z,1.30
2023-02-14T21:31:42.710Z,1.30
2023-02-14T21:34:10.902Z,1.40
2023-02-14T21:36:40.307Z,1.50
2023-02-14T21:39:08.483Z,1.30
2023-02-14T21:41:37.255Z,1.30
2023-02-14T21:44:05.880Z,1.40
2023-02-14T21:46:37.096Z,1.60
2023-02-14T21:49:23.997Z,1.70
2023-02-14T21:51:53.300Z,1.80
2023-02-14T21:54:21.295Z,1.80
2023-02-14T21:56:50.552Z,1.90
2023-02-14T21:59:18.810Z,1.90
2023-02-14T22:01:46.984Z,2.00
2023-02-14T22:04:15.231Z,1.90
2023-02-14T22:06:44.027Z,2.00
2023-02-14T22:09:15.064Z,1.80
2023-02-14T22:11:43.058Z,1.90
2023-02-14T22:14:11.311Z,1.90
2023-02-14T22:16:39.312Z,1.60
2023-02-14T22:19:08.277Z,1.60
2023-02-14T22:21:36.699Z,1.60
2023-02-14T22:24:05.140Z,1.70
2023-02-14T22:26:38.855Z,1.60
2023-02-14T22:29:07.985Z,1.60
2023-02-14T22:31:38.411Z,1.40
2023-02-14T22:34:08.017Z,1.60
2023-02-14T22:36:36.351Z,1.60
2023-02-14T22:39:04.625Z,1.70
2023-02-14T22:41:37.539Z,1.60
2023-02-14T22:44:06.532Z,1.70
2023-02-14T22:46:36.656Z,1.60
2023-02-14T22:49:05.829Z,1.50
2023-02-14T22:51:35.167Z,1.60
